createdAt,value
2017-10-23T00:03:30.920Z,13.47
2017-10-23T00:08:34.342Z,13.47
2017-10-23T00:13:36.258Z,13.41
2017-10-23T00:18:38.948Z,13.38
2017-10-23T00:23:40.844Z,13.38
2017-10-23T00:28:42.749Z,13.38
2017-10-23T00:33:44.663Z,13.27
2017-10-23T00:38:46.586Z,13.42
2017-10-23T00:43:50.063Z,13.38
2017-10-23T00:48:51.991Z,13.32
2017-10-23T00:53:54.953Z,13.30
2017-10-23T00:58:57.402Z,13.28
2017-10-23T01:04:00.182Z,13.45
2017-10-23T01:09:03.096Z,13.47
2017-10-23T01:14:05.880Z,13.42
2017-10-23T01:19:08.885Z,13.43
2017-10-23T01:24:12.444Z,13.32
2017-10-23T01:29:15.317Z,13.35
2017-10-23T01:34:18.220Z,13.34
2017-10-23T01:39:21.193Z,13.22
2017-10-23T01:44:24.446Z,13.23
2017-10-23T01:49:27.861Z,13.34
2017-10-23T01:54:30.792Z,13.20
2017-10-23T01:59:33.768Z,13.31
2017-10-23T02:04:36.681Z,13.34
2017-10-23T02:09:39.130Z,13.49
2017-10-23T02:14:41.980Z,13.36
2017-10-23T02:19:44.586Z,13.35
2017-10-23T02:24:47.167Z,13.30
2017-10-23T02:29:49.881Z,13.48
2017-10-23T02:34:52.733Z,13.55
2017-10-23T02:39:55.338Z,13.49
2017-10-23T02:44:57.823Z,13.40
2017-10-23T02:50:01.384Z,13.35
2017-10-23T02:55:04.147Z,13.47
2017-10-23T03:00:07.057Z,13.31
2017-10-23T03:05:09.819Z,13.15
2017-10-23T03:10:12.851Z,13.16
2017-10-23T03:15:15.849Z,13.08
2017-10-23T03:20:18.809Z,13.18
2017-10-23T03:25:21.132Z,13.14
2017-10-23T03:30:24.169Z,13.25
2017-10-23T03:35:27.249Z,13.34
2017-10-23T03:40:30.033Z,13.37
2017-10-23T03:45:33.633Z,13.52
2017-10-23T03:50:36.320Z,13.42
2017-10-23T03:55:39.146Z,13.42
2017-10-23T04:00:42.205Z,13.39
2017-10-23T04:05:45.263Z,13.46
2017-10-23T04:10:47.775Z,13.48
2017-10-23T04:15:51.365Z,13.42
2017-10-23T04:20:54.136Z,13.51
2017-10-23T04:25:56.915Z,13.55
2017-10-23T04:30:59.980Z,13.53
2017-10-23T04:36:02.953Z,13.46
2017-10-23T04:41:05.775Z,13.42
2017-10-23T04:46:08.843Z,13.53
2017-10-23T04:51:10.892Z,13.64
2017-10-23T04:56:13.719Z,13.70
2017-10-23T05:01:15.784Z,13.70
2017-10-23T05:06:17.896Z,13.56
2017-10-23T05:11:23.762Z,13.71
2017-10-23T05:16:26.663Z,13.77
2017-10-23T05:21:35.913Z,13.76
2017-10-23T05:26:38.070Z,13.67
2017-10-23T05:31:40.172Z,13.71
2017-10-23T05:36:42.231Z,13.59
2017-10-23T05:41:45.555Z,13.70
2017-10-23T05:46:48.623Z,13.64
2017-10-23T05:51:54.117Z,13.66
2017-10-23T05:56:57.947Z,13.73
2017-10-23T06:02:05.662Z,13.72
2017-10-23T06:07:08.028Z,13.72
2017-10-23T06:12:10.084Z,13.68
2017-10-23T06:17:13.300Z,13.64
2017-10-23T06:22:15.326Z,13.68
2017-10-23T06:27:17.419Z,13.58
2017-10-23T06:32:19.423Z,13.51
2017-10-23T06:37:21.432Z,13.47
2017-10-23T06:42:23.457Z,13.57
2017-10-23T06:47:25.539Z,13.53
2017-10-23T06:52:27.551Z,13.52
2017-10-23T06:57:29.653Z,13.65
2017-10-23T07:02:31.739Z,13.62
2017-10-23T07:07:33.959Z,13.56
2017-10-23T07:12:36.285Z,13.54
2017-10-23T07:17:38.537Z,13.81
2017-10-23T07:22:40.613Z,13.76
2017-10-23T07:27:42.920Z,13.73
2017-10-23T07:32:45.004Z,13.87
2017-10-23T07:37:46.991Z,13.84
2017-10-23T07:42:49.305Z,13.79
2017-10-23T07:47:51.382Z,14.12
2017-10-23T07:52:55.293Z,14.08
2017-10-23T07:57:57.248Z,14.08
2017-10-23T08:02:59.222Z,14.21
2017-10-23T08:08:01.900Z,14.11
2017-10-23T08:13:03.871Z,14.19
2017-10-23T08:18:06.512Z,14.26
2017-10-23T08:23:08.453Z,14.20
2017-10-23T08:28:10.479Z,14.21
2017-10-23T08:33:12.444Z,14.36
2017-10-23T08:38:14.399Z,14.47
2017-10-23T08:43:16.311Z,14.68
2017-10-23T08:48:19.015Z,14.63
2017-10-23T08:53:21.012Z,14.77
2017-10-23T08:58:23.139Z,15.04
2017-10-23T09:03:25.126Z,15.35
2017-10-23T09:08:27.117Z,15.61
2017-10-23T09:13:29.111Z,15.50
2017-10-23T09:18:37.895Z,15.43
2017-10-23T09:23:39.853Z,15.44
2017-10-23T09:28:41.775Z,15.27
2017-10-23T09:33:44.545Z,15.28
2017-10-23T09:38:47.268Z,15.27
2017-10-23T09:43:49.368Z,15.19
2017-10-23T09:48:52.848Z,15.08
2017-10-23T09:53:54.838Z,15.33
2017-10-23T09:58:56.891Z,15.18
2017-10-23T10:03:58.973Z,15.09
2017-10-23T10:09:01.195Z,14.58
2017-10-23T10:14:05.166Z,14.31
2017-10-23T10:19:07.144Z,14.10
2017-10-23T10:24:09.103Z,13.98
2017-10-23T10:29:11.827Z,13.85
2017-10-23T10:34:14.507Z,14.06
2017-10-23T10:39:16.494Z,13.96
2017-10-23T10:44:18.580Z,13.87
2017-10-23T10:49:21.973Z,13.90
2017-10-23T10:54:24.791Z,13.93
2017-10-23T10:59:26.741Z,14.12
2017-10-23T11:04:29.432Z,14.18
2017-10-23T11:09:31.344Z,14.30
2017-10-23T11:14:34.045Z,14.36
2017-10-23T11:19:36.039Z,14.40
2017-10-23T11:24:38.065Z,14.55
2017-10-23T11:29:40.110Z,14.43
2017-10-23T11:34:42.099Z,14.36
2017-10-23T11:39:44.803Z,14.39
2017-10-23T11:44:47.531Z,14.29
2017-10-23T11:49:52.986Z,14.20
2017-10-23T11:54:55.863Z,14.22
2017-10-23T11:59:58.499Z,14.38
2017-10-23T12:05:00.434Z,14.55
2017-10-23T12:10:02.364Z,14.58
2017-10-23T12:15:04.410Z,14.55
2017-10-23T12:20:06.372Z,14.57
2017-10-23T12:25:09.176Z,14.66
2017-10-23T12:30:11.463Z,14.62
2017-10-23T12:35:13.467Z,14.62
2017-10-23T12:40:15.502Z,14.68
2017-10-23T12:45:17.687Z,14.64
2017-10-23T12:50:19.612Z,14.48
2017-10-23T12:55:21.551Z,14.42
2017-10-23T13:00:27.119Z,14.50
2017-10-23T13:05:29.300Z,14.53
2017-10-23T13:10:31.203Z,14.81
2017-10-23T13:15:33.132Z,14.69
2017-10-23T13:20:35.089Z,14.63
2017-10-23T13:25:37.310Z,14.48
2017-10-23T13:30:39.265Z,14.56
2017-10-23T13:35:41.234Z,14.59
2017-10-23T13:40:43.192Z,14.37
2017-10-23T13:45:45.193Z,14.32
2017-10-23T13:50:47.159Z,14.35
2017-10-23T13:55:49.127Z,14.22
2017-10-23T14:00:51.981Z,14.19
2017-10-23T14:05:53.879Z,14.26
2017-10-23T14:10:55.819Z,14.27
2017-10-23T14:15:58.556Z,14.25
2017-10-23T14:21:01.351Z,14.46
2017-10-23T14:26:06.871Z,14.40
2017-10-23T14:31:10.287Z,14.41
2017-10-23T14:36:16.712Z,14.44
2017-10-23T14:41:18.832Z,14.45
2017-10-23T14:46:21.063Z,14.54
2017-10-23T14:51:23.115Z,14.42
2017-10-23T14:56:26.072Z,14.47
2017-10-23T15:01:28.122Z,14.39
2017-10-23T15:06:30.168Z,14.49
2017-10-23T15:11:32.865Z,14.48
2017-10-23T15:16:34.798Z,14.45
2017-10-23T15:21:37.527Z,14.41
2017-10-23T15:26:39.644Z,14.48
2017-10-23T15:31:41.569Z,14.45
2017-10-23T15:36:43.551Z,14.41
2017-10-23T15:41:45.495Z,14.43
2017-10-23T15:46:48.417Z,14.48
2017-10-23T15:51:50.396Z,14.48
2017-10-23T15:56:52.343Z,14.63
2017-10-23T16:01:54.360Z,14.61
2017-10-23T16:06:57.258Z,14.56
2017-10-23T16:11:59.180Z,14.52
2017-10-23T16:17:01.280Z,14.61
2017-10-23T16:22:03.229Z,14.66
2017-10-23T16:27:05.839Z,14.76
2017-10-23T16:32:08.537Z,14.83
2017-10-23T16:37:11.272Z,14.84
2017-10-23T16:42:13.261Z,14.90
2017-10-23T16:47:15.313Z,14.90
2017-10-23T16:52:17.243Z,14.90
2017-10-23T16:57:19.188Z,14.99
2017-10-23T17:02:22.195Z,15.00
2017-10-23T17:07:24.295Z,15.10
2017-10-23T17:12:27.144Z,15.00
2017-10-23T17:17:29.180Z,14.84
2017-10-23T17:22:31.141Z,14.83
2017-10-23T17:27:34.571Z,14.92
2017-10-23T17:32:36.543Z,14.88
2017-10-23T17:37:38.471Z,14.82
2017-10-23T17:42:40.393Z,14.73
2017-10-23T17:47:42.544Z,14.75
2017-10-23T17:52:44.568Z,14.75
2017-10-23T17:57:46.519Z,14.78
2017-10-23T18:02:48.484Z,14.77
2017-10-23T18:07:50.411Z,14.87
2017-10-23T18:12:52.336Z,14.80
2017-10-23T18:17:54.271Z,14.86
2017-10-23T18:22:56.196Z,15.00
2017-10-23T18:27:58.105Z,14.97
2017-10-23T18:33:00.019Z,14.85
2017-10-23T18:38:01.942Z,14.96
2017-10-23T18:43:04.789Z,14.90
2017-10-23T18:48:08.399Z,14.90
2017-10-23T18:53:11.135Z,14.96
2017-10-23T18:58:13.905Z,14.89
2017-10-23T19:03:16.309Z,14.87
2017-10-23T19:08:18.659Z,14.77
2017-10-23T19:13:20.591Z,14.80
2017-10-23T19:18:22.504Z,14.83
2017-10-23T19:23:24.496Z,14.68
2017-10-23T19:28:26.449Z,14.79
2017-10-23T19:33:28.428Z,14.82
2017-10-23T19:38:30.391Z,14.66
2017-10-23T19:43:32.342Z,14.61
2017-10-23T19:48:35.051Z,14.67
2017-10-23T19:53:37.731Z,14.69
2017-10-23T19:58:39.665Z,14.63
2017-10-23T20:03:41.602Z,14.65
2017-10-23T20:08:44.375Z,14.65
2017-10-23T20:13:46.365Z,14.68
2017-10-23T20:18:48.308Z,14.67
2017-10-23T20:23:50.215Z,14.66
2017-10-23T20:28:52.871Z,14.69
2017-10-23T20:33:54.768Z,14.72
2017-10-23T20:38:57.068Z,14.59
2017-10-23T20:43:59.135Z,14.67
2017-10-23T20:49:01.053Z,14.78
2017-10-23T20:54:03.059Z,14.85
2017-10-23T20:59:05.075Z,14.87
2017-10-23T21:04:08.032Z,14.87
2017-10-23T21:09:09.987Z,14.82
2017-10-23T21:14:12.065Z,14.68
2017-10-23T21:19:13.975Z,14.58
2017-10-23T21:24:15.907Z,14.50
2017-10-23T21:29:17.948Z,14.48
2017-10-23T21:34:19.855Z,14.45
2017-10-23T21:39:21.771Z,14.37
2017-10-23T21:44:23.819Z,14.32
2017-10-23T21:49:25.740Z,14.18
2017-10-23T21:54:28.428Z,14.20
2017-10-23T21:59:30.349Z,14.19
2017-10-23T22:04:33.076Z,14.20
2017-10-23T22:09:36.026Z,14.15
2017-10-23T22:14:37.921Z,14.21
2017-10-23T22:19:40.578Z,14.26
2017-10-23T22:24:42.466Z,14.20
2017-10-23T22:29:44.413Z,14.22
2017-10-23T22:34:46.360Z,14.22
2017-10-23T22:39:49.034Z,14.28
2017-10-23T22:44:51.263Z,14.33
2017-10-23T22:49:53.173Z,14.20
2017-10-23T22:54:55.146Z,14.29
2017-10-23T22:59:57.079Z,14.42
2017-10-23T23:04:59.736Z,14.44
2017-10-23T23:10:01.716Z,14.60
2017-10-23T23:15:04.398Z,14.66
2017-10-23T23:20:06.359Z,14.62
2017-10-23T23:25:08.444Z,14.65
2017-10-23T23:30:10.503Z,14.64
2017-10-23T23:35:12.425Z,14.48
2017-10-23T23:40:14.447Z,14.35
2017-10-23T23:45:17.163Z,14.39
2017-10-23T23:50:19.156Z,14.30
2017-10-23T23:55:21.132Z,14.29
